This is the latest recevied weather packets stored in our database for station/object DF7ER-12. If no packets are shown the sender has not sent any weather packets the latest 10 day(s).
| Time | Temp. | Humidity | Pressure | Rain* | Wind** | Luminosity | Snow |
|---|---|---|---|---|---|---|---|
| 1777628199 | 21.67° C | 52% | 1018.7 hPa | - | - | - | - |
| 1777627898 | 22.22° C | 51% | 1018.8 hPa | - | - | - | - |
| 1777627599 | 20.56° C | 51% | 1018.7 hPa | - | - | - | - |
| 1777627298 | 22.22° C | 49% | 1018.9 hPa | - | - | - | - |
| 1777626999 | 22.78° C | 51% | 1018.9 hPa | - | - | - | - |
| 1777626699 | 22.78° C | 50% | 1019 hPa | - | - | - | - |
| 1777626399 | 22.78° C | 49% | 1019.1 hPa | - | - | - | - |
| 1777626098 | 22.78° C | 50% | 1019.1 hPa | - | - | - | - |
| 1777625799 | 22.78° C | 50% | 1019.1 hPa | - | - | - | - |
| 1777625498 | 22.22° C | 49% | 1019 hPa | - | - | - | - |
| 1777625198 | 22.78° C | 51% | 1019.1 hPa | - | - | - | - |
| 1777624899 | 21.67° C | 51% | 1019.1 hPa | - | - | - | - |
| 1777624599 | 20.56° C | 52% | 1019.1 hPa | - | - | - | - |
| 1777624298 | 21.67° C | 51% | 1019.1 hPa | - | - | - | - |
| 1777623998 | 21.67° C | 51% | 1019.3 hPa | - | - | - | - |
| 1777623698 | 21.67° C | 53% | 1019.3 hPa | - | - | - | - |
| 1777623399 | 21.11° C | 54% | 1019.3 hPa | - | - | - | - |
| 1777623098 | 21.11° C | 52% | 1019.4 hPa | - | - | - | - |
| 1777622799 | 21.11° C | 51% | 1019.4 hPa | - | - | - | - |
| 1777622498 | 21.11° C | 53% | 1019.3 hPa | - | - | - | - |
| 1777622198 | 21.11° C | 52% | 1019.4 hPa | - | - | - | - |
| 1777621899 | 20.56° C | 54% | 1019.3 hPa | - | - | - | - |
| 1777621599 | 20.56° C | 54% | 1019.3 hPa | - | - | - | - |
| 1777621299 | 20° C | 56% | 1019.3 hPa | - | - | - | - |
| 1777620999 | 20° C | 55% | 1019.4 hPa | - | - | - | - |
* Rain since midnight (hover to see other rain measurements)
** Current wind speed in m/s (hover to see current wind gust speed)